Time;durP1;ratioP1;P1;durP2;ratioP2;P2;SDS_P1;SDS_P2;PMS_P1;PMS_P2;Temp;Humidity;BMP_temperature;BMP_pressure;BME280_temperature;BME280_humidity;BME280_pressure;Samples;Min_cycle;Max_cycle;Signal;HPM_P1;HPM_P2
2021/12/30 00:01:31;;;;;;;;;;;;;;;5.83;66.81;99753.72;4396620;32;34804;-81
2021/12/30 00:04:00;;;;;;;;;;;;;;;5.71;66.92;99756.41;4398607;32;35355;-81
2021/12/30 00:06:29;;;;;;;;;;;;;;;5.62;67.54;99751.81;4402439;32;34456;-81
2021/12/30 00:08:57;;;;;;;;;;;;;;;5.56;67.72;99755.78;4398771;32;32934;-81
2021/12/30 00:11:25;;;;;;;;;;;;;;;5.60;67.60;99762.47;4388346;32;33135;-82
2021/12/30 00:13:52;;;;;;;;;;;;;;;5.56;67.57;99762.81;4400590;32;35727;-82
2021/12/30 00:16:20;;;;;;;;;;;;;;;5.79;67.04;99772.56;4399475;32;36579;-81
2021/12/30 00:18:49;;;;;;;;;;;;;;;5.70;67.18;99778.50;4401386;32;33866;-81
2021/12/30 00:21:17;;;;;;;;;;;;;;;5.83;66.97;99780.13;4385795;32;34055;-80
2021/12/30 00:23:45;;;;;;;;;;;;;;;5.85;66.85;99772.06;4397307;32;32958;-81
2021/12/30 00:26:13;;;;;;;;;;;;;;;5.47;67.87;99772.28;4386231;32;33980;-81
2021/12/30 00:28:41;;;;;;;;;;;;;;;5.75;66.61;99769.28;4398235;32;32943;-81
2021/12/30 00:31:09;;;;;;;;;;;;;;;5.92;66.06;99778.59;4399093;32;34836;-82
2021/12/30 00:33:38;;;;;;;;;;;;;;;5.73;66.92;99796.72;4398837;32;36343;-81
2021/12/30 00:36:07;;;;;;;;;;;;;;;5.69;67.20;99796.13;4401237;32;34157;-81
2021/12/30 00:38:36;;;;;;;;;;;;;;;5.73;67.26;99797.59;4397531;32;33653;-82
2021/12/30 00:41:04;;;;;;;;;;;;;;;5.79;67.01;99799.78;4413067;32;34226;-80
2021/12/30 00:43:31;;;;;;;;;;;;;;;5.96;66.59;99809.94;4398503;32;35377;-81
2021/12/30 00:45:59;;;;;;;;;;;;;;;5.82;66.88;99801.34;4385549;32;36101;-82
2021/12/30 00:48:28;;;;;;;;;;;;;;;5.74;67.22;99808.97;4388109;32;34033;-81
2021/12/30 00:50:56;;;;;;;;;;;;;;;5.90;66.81;99814.84;4398781;32;34120;-82
2021/12/30 00:53:23;;;;;;;;;;;;;;;5.89;66.64;99811.34;4399131;32;35257;-82
2021/12/30 00:55:52;;;;;;;;;;;;;;;5.92;66.45;99818.19;4401656;32;34222;-80
2021/12/30 00:58:19;;;;;;;;;;;;;;;5.82;66.81;99822.47;4400799;32;33933;-81
2021/12/30 01:00:47;;;;;;;;;;;;;;;6.04;65.91;99826.03;4388507;32;34526;-80
2021/12/30 01:03:16;;;;;;;;;;;;;;;5.96;66.17;99828.41;4397858;32;35837;-81
2021/12/30 01:05:44;;;;;;;;;;;;;;;6.09;65.89;99833.63;4401515;32;34093;-82
2021/12/30 01:08:12;;;;;;;;;;;;;;;6.06;65.96;99836.50;4398774;32;33380;-81
2021/12/30 01:10:40;;;;;;;;;;;;;;;5.89;66.49;99831.63;4401461;32;33751;-81
2021/12/30 01:13:15;;;;;;;;;;;;;;;6.04;65.93;99828.69;4401909;32;35623;-81
2021/12/30 01:15:48;;;;;;;;;;;;;;;6.04;65.98;99833.09;4408309;32;34786;-82
2021/12/30 01:18:31;;;;;;;;;;;;;;;5.51;67.75;99838.84;4402403;32;32591;-81
2021/12/30 01:20:59;;;;;;;;;;;;;;;5.93;66.41;99833.06;4396540;32;33885;-80
2021/12/30 01:23:27;;;;;;;;;;;;;;;6.05;65.81;99835.66;4398287;32;35718;-82
2021/12/30 01:25:55;;;;;;;;;;;;;;;6.05;65.88;99854.13;4372704;32;32282;-80
2021/12/30 01:28:25;;;;;;;;;;;;;;;5.96;66.06;99848.72;4402689;32;35002;-81
2021/12/30 01:30:53;;;;;;;;;;;;;;;6.29;64.83;99852.31;4399351;32;34273;-80
2021/12/30 01:33:22;;;;;;;;;;;;;;;6.01;65.91;99849.19;4409311;32;37722;-81
2021/12/30 01:35:50;;;;;;;;;;;;;;;5.97;65.91;99847.75;4401208;32;35378;-81
2021/12/30 01:38:17;;;;;;;;;;;;;;;5.71;66.82;99852.25;4401359;32;33364;-81
2021/12/30 01:40:46;;;;;;;;;;;;;;;5.96;66.23;99854.81;4399083;32;33686;-82
2021/12/30 01:43:15;;;;;;;;;;;;;;;6.07;65.80;99848.75;4398498;32;35319;-81
2021/12/30 01:45:43;;;;;;;;;;;;;;;6.15;65.36;99854.31;4399504;32;34709;-81
2021/12/30 01:48:11;;;;;;;;;;;;;;;6.08;65.62;99853.88;4397897;32;34025;-81
2021/12/30 01:50:42;;;;;;;;;;;;;;;6.07;65.76;99856.66;4409529;32;34134;-81
2021/12/30 01:53:10;;;;;;;;;;;;;;;6.21;65.34;99861.75;4401003;32;35397;-81
2021/12/30 01:55:38;;;;;;;;;;;;;;;6.02;66.01;99870.22;4400185;32;34622;-81
2021/12/30 01:58:08;;;;;;;;;;;;;;;5.76;66.60;99865.97;4402086;32;34071;-81
2021/12/30 02:00:37;;;;;;;;;;;;;;;5.95;66.14;99854.94;4407975;32;34252;-82
2021/12/30 02:03:06;;;;;;;;;;;;;;;5.92;66.33;99850.72;4397713;32;34655;-81
2021/12/30 02:05:34;;;;;;;;;;;;;;;6.31;64.98;99849.53;4387385;32;34419;-81
2021/12/30 02:08:02;;;;;;;;;;;;;;;6.03;65.62;99844.62;4410314;32;33416;-81
2021/12/30 02:10:30;;;;;;;;;;;;;;;5.87;66.32;99850.22;4400685;32;34337;-80
2021/12/30 02:12:58;;;;;;;;;;;;;;;5.47;67.89;99855.84;4395838;32;34988;-81
2021/12/30 02:15:25;;;;;;;;;;;;;;;5.64;67.48;99850.19;4397546;32;33519;-80
2021/12/30 02:17:54;;;;;;;;;;;;;;;5.92;66.50;99858.66;4397332;32;34109;-82
2021/12/30 02:20:43;;;;;;;;;;;;;;;5.88;66.70;99854.53;4395569;32;35362;-80
2021/12/30 02:23:31;;;;;;;;;;;;;;;5.95;66.70;99854.94;4411395;32;36359;-80
2021/12/30 02:26:01;;;;;;;;;;;;;;;6.01;66.24;99857.97;4396291;32;34714;-81
2021/12/30 02:28:31;;;;;;;;;;;;;;;5.67;67.26;99857.91;4403046;32;33584;-80
2021/12/30 02:31:00;;;;;;;;;;;;;;;5.65;67.48;99860.66;4401056;32;34958;-82
2021/12/30 02:33:28;;;;;;;;;;;;;;;5.50;67.98;99866.19;4398771;32;34896;-82
2021/12/30 02:35:56;;;;;;;;;;;;;;;5.76;67.59;99865.97;4388822;32;34148;-81
2021/12/30 02:38:24;;;;;;;;;;;;;;;6.03;66.11;99850.75;4407791;32;33071;-81
2021/12/30 02:40:54;;;;;;;;;;;;;;;5.69;67.52;99854.19;4402721;32;33337;-82
2021/12/30 02:43:24;;;;;;;;;;;;;;;5.89;66.93;99840.37;4399973;32;35310;-82
2021/12/30 02:45:52;;;;;;;;;;;;;;;5.36;68.58;99841.78;4411900;32;34704;-81
2021/12/30 02:48:21;;;;;;;;;;;;;;;5.47;68.62;99833.91;4385141;32;33804;-80
2021/12/30 02:50:50;;;;;;;;;;;;;;;5.50;68.46;99843.28;4412592;32;33801;-82
2021/12/30 02:53:20;;;;;;;;;;;;;;;5.31;69.53;99844.75;4400768;32;34235;-80
2021/12/30 02:55:48;;;;;;;;;;;;;;;5.29;69.65;99849.25;4411719;32;34733;-80
2021/12/30 02:58:16;;;;;;;;;;;;;;;5.70;68.14;99850.56;4412383;32;33939;-81
2021/12/30 03:00:44;;;;;;;;;;;;;;;5.53;68.72;99835.16;4398981;32;34091;-81
2021/12/30 03:03:16;;;;;;;;;;;;;;;5.62;68.41;99844.19;4409874;32;34900;-80
2021/12/30 03:05:45;;;;;;;;;;;;;;;5.38;69.33;99845.97;4399396;32;34027;-81
2021/12/30 03:08:14;;;;;;;;;;;;;;;5.26;70.26;99844.22;4388172;32;32847;-80
2021/12/30 03:10:42;;;;;;;;;;;;;;;5.27;69.94;99856.44;4400342;32;33148;-81
2021/12/30 03:13:13;;;;;;;;;;;;;;;5.47;69.37;99862.94;4400945;32;35623;-81
2021/12/30 03:15:41;;;;;;;;;;;;;;;5.64;69.11;99860.75;4400530;32;34631;-80
2021/12/30 03:18:09;;;;;;;;;;;;;;;5.68;68.69;99855.13;4399470;32;33610;-80
2021/12/30 03:20:37;;;;;;;;;;;;;;;5.99;67.80;99864.31;4397246;32;34963;-80
2021/12/30 03:23:06;;;;;;;;;;;;;;;5.91;67.96;99866.69;4387120;32;34265;-81
2021/12/30 03:25:34;;;;;;;;;;;;;;;6.10;66.94;99853.78;4401045;32;35395;-82
2021/12/30 03:28:02;;;;;;;;;;;;;;;5.82;67.85;99862.06;4397857;32;33372;-82
2021/12/30 03:30:30;;;;;;;;;;;;;;;5.90;67.83;99863.22;4400107;32;34510;-80
2021/12/30 03:32:57;;;;;;;;;;;;;;;6.13;66.81;99867.59;4400444;32;35192;-81
2021/12/30 03:35:25;;;;;;;;;;;;;;;6.17;66.55;99868.22;4401485;32;34694;-81
2021/12/30 03:37:53;;;;;;;;;;;;;;;6.17;66.48;99866.41;4396108;32;32623;-81
2021/12/30 03:40:21;;;;;;;;;;;;;;;5.76;67.36;99862.47;4401989;32;34636;-81
2021/12/30 03:42:49;;;;;;;;;;;;;;;5.71;68.25;99869.91;4402147;32;37057;-81
2021/12/30 03:45:17;;;;;;;;;;;;;;;5.84;67.70;99871.56;4401159;32;36092;-82
2021/12/30 03:47:47;;;;;;;;;;;;;;;5.79;67.94;99875.50;4398432;32;34051;-81
2021/12/30 03:50:21;;;;;;;;;;;;;;;5.67;68.42;99879.03;4400185;32;34376;-81
2021/12/30 03:52:50;;;;;;;;;;;;;;;5.49;69.09;99881.16;4398461;32;35659;-81
2021/12/30 03:55:19;;;;;;;;;;;;;;;5.16;70.64;99897.72;4400473;32;33130;-82
2021/12/30 03:57:48;;;;;;;;;;;;;;;5.22;70.65;99894.66;4400269;32;33434;-81
2021/12/30 04:00:16;;;;;;;;;;;;;;;5.48;69.65;99900.59;4397990;32;34279;-81
2021/12/30 04:02:44;;;;;;;;;;;;;;;5.39;69.92;99899.56;4400285;32;35038;-81
2021/12/30 04:05:13;;;;;;;;;;;;;;;4.87;71.75;99904.16;4404002;32;34070;-82
2021/12/30 04:07:41;;;;;;;;;;;;;;;5.14;70.81;99894.34;4401965;32;32889;-81
2021/12/30 04:10:11;;;;;;;;;;;;;;;4.92;71.30;99889.72;4410274;32;33408;-81
2021/12/30 04:12:39;;;;;;;;;;;;;;;4.56;73.14;99896.69;4401117;32;33854;-81
2021/12/30 04:15:08;;;;;;;;;;;;;;;4.59;73.33;99902.59;4396970;32;34263;-80
2021/12/30 04:17:36;;;;;;;;;;;;;;;4.56;73.39;99902.81;4410666;32;33536;-81
2021/12/30 04:20:07;;;;;;;;;;;;;;;4.39;74.00;99904.88;4410076;32;34275;-81
2021/12/30 04:22:36;;;;;;;;;;;;;;;4.36;74.36;99915.63;4403151;32;35244;-81
2021/12/30 04:25:05;;;;;;;;;;;;;;;4.14;75.25;99918.84;4413732;32;35439;-81
2021/12/30 04:27:33;;;;;;;;;;;;;;;4.23;75.12;99936.66;4398713;32;33933;-80
2021/12/30 04:30:02;;;;;;;;;;;;;;;4.34;74.92;99938.59;4403871;32;33910;-80
2021/12/30 04:32:31;;;;;;;;;;;;;;;4.47;74.38;99937.69;4391120;32;34880;-80
2021/12/30 04:38:05;;;;;;;;;;;;;;;4.35;75.07;99938.47;4403990;32;34135;-82
2021/12/30 04:40:34;;;;;;;;;;;;;;;4.38;74.97;99943.56;4379264;32;33976;-82
2021/12/30 04:43:01;;;;;;;;;;;;;;;4.40;74.91;99953.97;4388760;32;36347;-84
2021/12/30 04:45:29;;;;;;;;;;;;;;;4.69;74.49;99971.31;4388024;32;32889;-82
2021/12/30 04:47:57;;;;;;;;;;;;;;;4.68;74.35;99965.22;4403673;32;33630;-82
2021/12/30 04:50:25;;;;;;;;;;;;;;;5.01;73.20;99964.72;4401224;32;34446;-83
2021/12/30 04:52:53;;;;;;;;;;;;;;;5.20;72.70;99971.22;4381781;32;33464;-82
2021/12/30 04:55:20;;;;;;;;;;;;;;;5.36;71.96;99969.22;4404250;32;35004;-82
2021/12/30 04:57:47;;;;;;;;;;;;;;;5.45;71.69;99979.13;4386068;32;32701;-82
2021/12/30 05:00:15;;;;;;;;;;;;;;;5.72;70.69;99987.72;4401747;32;34784;-83
2021/12/30 05:05:29;;;;;;;;;;;;;;;5.51;71.13;100010.37;4393025;32;33114;-80
2021/12/30 05:07:57;;;;;;;;;;;;;;;5.46;71.22;100009.00;4393603;32;785503;-82
2021/12/30 05:10:24;;;;;;;;;;;;;;;5.72;70.80;100011.47;4418841;32;34234;-85
2021/12/30 05:12:51;;;;;;;;;;;;;;;5.89;70.26;100027.81;4400262;32;35289;-81
2021/12/30 05:15:19;;;;;;;;;;;;;;;5.77;70.31;100051.59;4401559;32;34313;-81
2021/12/30 05:17:47;;;;;;;;;;;;;;;5.79;70.36;100063.75;4415218;32;33076;-82
2021/12/30 05:20:14;;;;;;;;;;;;;;;5.87;69.88;100053.50;4422175;32;34349;-83
2021/12/30 05:22:42;;;;;;;;;;;;;;;6.09;69.43;100048.41;4401902;32;35171;-80
2021/12/30 05:25:10;;;;;;;;;;;;;;;6.05;69.23;100048.72;4403031;32;34213;-81
2021/12/30 05:27:37;;;;;;;;;;;;;;;6.16;69.14;100059.34;4405686;32;32199;-82
2021/12/30 05:30:06;;;;;;;;;;;;;;;6.20;68.77;100064.31;4403305;32;33855;-83
2021/12/30 05:32:34;;;;;;;;;;;;;;;6.16;69.09;100067.28;4398568;32;35329;-82
2021/12/30 05:35:03;;;;;;;;;;;;;;;5.97;69.48;100062.47;4405201;32;33809;-81
2021/12/30 05:37:30;;;;;;;;;;;;;;;6.20;68.75;100055.53;4413502;32;33359;-82
2021/12/30 05:39:58;;;;;;;;;;;;;;;6.36;68.34;100062.22;4399071;32;32943;-82
2021/12/30 05:42:25;;;;;;;;;;;;;;;6.19;68.69;100062.62;4400153;32;36136;-83
2021/12/30 05:44:55;;;;;;;;;;;;;;;6.31;68.42;100074.09;4414821;32;34040;-81
2021/12/30 05:47:23;;;;;;;;;;;;;;;6.35;68.15;100076.41;4417265;32;35667;-81
2021/12/30 05:49:50;;;;;;;;;;;;;;;6.42;67.95;100079.47;4405745;32;33283;-81
2021/12/30 05:52:18;;;;;;;;;;;;;;;6.43;68.00;100071.41;4417366;32;35647;-85
2021/12/30 05:54:45;;;;;;;;;;;;;;;6.46;67.74;100071.19;4415299;32;34678;-83
2021/12/30 05:57:13;;;;;;;;;;;;;;;6.52;67.42;100061.97;4413196;32;31414;-83
2021/12/30 05:59:40;;;;;;;;;;;;;;;6.41;67.60;100068.03;4415303;32;35114;-82
2021/12/30 06:02:08;;;;;;;;;;;;;;;6.19;68.22;100069.69;4415929;32;34669;-81
2021/12/30 06:04:36;;;;;;;;;;;;;;;6.00;69.56;100066.69;4401276;32;33887;-85
2021/12/30 06:07:03;;;;;;;;;;;;;;;5.45;71.54;100073.28;4406766;32;33345;-82
2021/12/30 06:09:30;;;;;;;;;;;;;;;6.19;68.30;100081.13;4395498;32;34046;-82
2021/12/30 06:11:58;;;;;;;;;;;;;;;5.96;68.99;100108.31;4402915;32;34956;-84
2021/12/30 06:14:25;;;;;;;;;;;;;;;6.30;67.85;100112.88;4402207;32;34463;-83
2021/12/30 06:16:53;;;;;;;;;;;;;;;6.21;68.20;100108.25;4418328;32;34260;-82
2021/12/30 06:19:20;;;;;;;;;;;;;;;6.34;67.15;100102.94;4401108;32;33569;-82
2021/12/30 06:21:48;;;;;;;;;;;;;;;6.14;67.84;100106.19;4407538;32;34326;-84
2021/12/30 06:24:15;;;;;;;;;;;;;;;5.76;68.89;100114.09;4415955;32;34857;-82
2021/12/30 06:26:43;;;;;;;;;;;;;;;5.59;69.65;100117.06;4405363;32;33450;-88
2021/12/30 06:29:12;;;;;;;;;;;;;;;6.05;68.36;100120.88;4405396;32;34071;-81
2021/12/30 06:31:40;;;;;;;;;;;;;;;5.75;69.55;100128.25;4404264;32;34549;-82
2021/12/30 06:34:08;;;;;;;;;;;;;;;5.90;69.20;100126.38;4401384;32;34655;-84
2021/12/30 06:36:35;;;;;;;;;;;;;;;5.98;68.48;100134.63;4403158;32;33320;-82
2021/12/30 06:39:03;;;;;;;;;;;;;;;5.63;69.56;100144.94;4415076;32;35291;-81
2021/12/30 06:41:30;;;;;;;;;;;;;;;5.18;71.00;100141.91;4407459;32;35193;-82
2021/12/30 06:43:58;;;;;;;;;;;;;;;5.45;70.63;100147.97;4385438;32;32897;-82
2021/12/30 06:46:25;;;;;;;;;;;;;;;5.32;71.18;100154.19;4400017;32;32687;-82
2021/12/30 06:48:53;;;;;;;;;;;;;;;5.35;70.92;100159.28;4396963;32;34172;-82
2021/12/30 06:51:23;;;;;;;;;;;;;;;4.94;72.47;100171.69;4407415;32;34970;-80
2021/12/30 06:53:54;;;;;;;;;;;;;;;4.99;73.04;100178.34;4402642;32;33825;-82
2021/12/30 06:56:23;;;;;;;;;;;;;;;5.10;72.48;100189.03;4407375;32;31902;-80
2021/12/30 06:58:50;;;;;;;;;;;;;;;5.25;72.38;100205.66;4401331;32;33140;-81
2021/12/30 07:01:18;;;;;;;;;;;;;;;5.24;72.08;100220.63;4402480;32;35131;-83
2021/12/30 07:03:46;;;;;;;;;;;;;;;5.41;71.59;100230.06;4420194;32;34313;-83
2021/12/30 07:06:13;;;;;;;;;;;;;;;5.45;71.39;100226.31;4404933;32;33241;-82
2021/12/30 07:08:40;;;;;;;;;;;;;;;5.23;71.67;100212.81;4417211;32;33103;-85
2021/12/30 07:11:08;;;;;;;;;;;;;;;5.45;70.70;100211.31;4403608;32;36035;-84
2021/12/30 07:13:36;;;;;;;;;;;;;;;4.97;72.06;100203.97;4397333;32;34722;-89
2021/12/30 07:16:03;;;;;;;;;;;;;;;5.27;71.28;100209.87;4406636;32;33408;-84
2021/12/30 07:18:37;;;;;;;;;;;;;;;5.42;70.74;100206.25;4410212;32;34864;-82
2021/12/30 07:21:05;;;;;;;;;;;;;;;5.28;71.17;100208.94;4394986;32;37118;-82
2021/12/30 07:23:32;;;;;;;;;;;;;;;4.99;72.31;100214.44;4407314;32;35520;-82
2021/12/30 07:26:00;;;;;;;;;;;;;;;4.98;72.41;100218.03;4418849;32;32475;-83
2021/12/30 07:28:28;;;;;;;;;;;;;;;4.79;73.15;100213.06;4403423;32;35037;-88
2021/12/30 07:30:56;;;;;;;;;;;;;;;4.91;72.79;100220.19;4400876;32;35651;-80
2021/12/30 07:33:23;;;;;;;;;;;;;;;4.84;73.38;100232.09;4425484;32;33986;-84
2021/12/30 07:35:51;;;;;;;;;;;;;;;4.82;73.28;100244.50;4407157;32;32582;-82
2021/12/30 07:38:18;;;;;;;;;;;;;;;4.72;73.56;100245.19;4409501;32;34289;-88
2021/12/30 07:40:46;;;;;;;;;;;;;;;4.67;74.44;100244.63;4395614;32;34622;-82
2021/12/30 07:43:13;;;;;;;;;;;;;;;4.86;73.98;100253.06;4401980;32;34206;-81
2021/12/30 07:45:41;;;;;;;;;;;;;;;5.26;71.88;100247.75;4418349;32;33923;-82
2021/12/30 07:48:09;;;;;;;;;;;;;;;5.21;71.87;100255.13;4415095;32;34289;-84
2021/12/30 07:50:39;;;;;;;;;;;;;;;5.32;71.20;100247.37;4407133;32;35256;-83
2021/12/30 07:53:06;;;;;;;;;;;;;;;5.20;72.06;100250.78;4410423;32;34134;-82
2021/12/30 07:55:34;;;;;;;;;;;;;;;5.25;71.82;100251.34;4409496;32;32815;-83
2021/12/30 07:58:03;;;;;;;;;;;;;;;4.90;72.36;100251.94;4403585;32;33550;-83
2021/12/30 08:00:30;;;;;;;;;;;;;;;5.09;72.27;100255.09;4418856;32;34905;-81
2021/12/30 08:03:00;;;;;;;;;;;;;;;4.88;72.93;100254.66;4407884;32;35352;-82
2021/12/30 08:05:28;;;;;;;;;;;;;;;4.96;72.55;100256.78;4409468;32;34504;-82
2021/12/30 08:07:55;;;;;;;;;;;;;;;4.74;73.76;100252.06;4397156;32;33431;-85
2021/12/30 08:10:23;;;;;;;;;;;;;;;4.75;74.08;100259.03;4394344;32;36802;-83
2021/12/30 08:12:52;;;;;;;;;;;;;;;4.76;74.35;100255.44;4407513;32;34294;-86
2021/12/30 08:25:52;;;;;;;;;;;;;;;;;;;;;
2021/12/30 08:37:36;;;;;;;;;;;;;;;4.81;74.57;100277.06;4327034;33;33990;-83
2021/12/30 08:44:03;;;;;;;;;;;;;;;;;;;;;
2021/12/30 08:46:53;;;;;;;;;;;;;;;4.93;74.25;100284.22;4292914;33;35279;-84
2021/12/30 08:49:53;;;;;;;;;;;;;;;5.33;73.02;100285.97;4292602;33;33820;-88
2021/12/30 08:56:08;;;;;;;;;;;;;;;;;;;;;
2021/12/30 08:59:02;;;;;;;;;;;;;;;5.47;71.67;100285.09;4325880;33;35494;-82
2021/12/30 09:14:56;;;;;;;;;;;;;;;5.66;73.38;100308.37;4265179;33;34741;-82
2021/12/30 09:24:36;;;;;;;;;;;;;;;;;;;;;
2021/12/30 09:37:20;;;;;;;;;;;;;;;6.49;69.79;100284.19;4417971;32;35194;-83
2021/12/30 09:39:55;;;;;;;;;;;;;;;6.47;68.96;100297.53;4430914;32;34221;-85
2021/12/30 09:49:37;;;;;;;;;;;;;;;6.36;69.21;100305.31;4350037;33;33338;-86
2021/12/30 09:52:54;;;;;;;;;;;;;;;6.52;69.03;100307.78;4354745;33;32798;-82
2021/12/30 10:02:22;;;;;;;;;;;;;;;6.73;69.06;100308.91;4325553;33;33555;-85
2021/12/30 10:06:16;;;;;;;;;;;;;;;6.88;68.46;100310.50;4308831;33;34845;-84
2021/12/30 10:12:18;;;;;;;;;;;;;;;6.87;68.37;100306.13;4270185;33;35003;-86
2021/12/30 10:15:45;;;;;;;;;;;;;;;6.80;68.46;100291.66;4249131;33;34947;-83
2021/12/30 10:18:55;;;;;;;;;;;;;;;6.83;68.31;100294.94;4231628;33;35387;-83
2021/12/30 10:28:40;;;;;;;;;;;;;;;6.70;69.00;100295.91;4326739;33;33661;-83
2021/12/30 10:41:23;;;;;;;;;;;;;;;6.96;67.75;100302.81;4307856;33;34963;-83
2021/12/30 10:44:55;;;;;;;;;;;;;;;6.98;68.25;100301.78;4265361;33;34980;-83
2021/12/30 11:00:58;;;;;;;;;;;;;;;7.42;65.64;100278.22;4287571;33;33665;-84
2021/12/30 11:06:38;;;;;;;;;;;;;;;7.02;68.48;100274.16;4329015;33;36263;-82
2021/12/30 11:16:05;;;;;;;;;;;;;;;6.94;68.40;100276.50;4284420;33;34480;-84
2021/12/30 11:18:58;;;;;;;;;;;;;;;6.85;69.02;100279.81;4292054;33;34175;-84
2021/12/30 11:21:53;;;;;;;;;;;;;;;6.77;69.56;100273.34;4270210;33;34231;-84
2021/12/30 11:32:09;;;;;;;;;;;;;;;6.54;70.77;100272.34;4277327;33;34677;-85
2021/12/30 11:35:12;;;;;;;;;;;;;;;6.41;71.49;100275.94;4287127;33;35513;-85
2021/12/30 11:39:13;;;;;;;;;;;;;;;6.79;70.68;100284.69;4279751;33;34040;-85
2021/12/30 11:49:05;;;;;;;;;;;;;;;7.07;68.82;100279.12;4287107;33;34854;-84
2021/12/30 11:58:51;;;;;;;;;;;;;;;6.63;70.44;100270.84;4335684;32;35345;-83
2021/12/30 12:02:00;;;;;;;;;;;;;;;6.77;70.46;100254.84;4330269;33;32497;-84
2021/12/30 12:04:44;;;;;;;;;;;;;;;7.05;69.48;100262.50;4341347;32;33511;-84
2021/12/30 12:08:01;;;;;;;;;;;;;;;7.37;67.39;100253.06;4334643;32;33791;-84
2021/12/30 12:10:47;;;;;;;;;;;;;;;7.09;68.19;100251.56;4390139;32;34464;-84
2021/12/30 12:14:13;;;;;;;;;;;;;;;6.64;70.02;100257.50;4319328;33;33867;-84
2021/12/30 12:31:43;;;;;;;;;;;;;;;7.37;68.11;100266.31;4235906;33;32657;-85
2021/12/30 12:38:00;;;;;;;;;;;;;;;7.14;68.77;100270.63;4238004;33;35438;-83
2021/12/30 12:41:51;;;;;;;;;;;;;;;7.42;67.74;100283.53;4238865;33;34108;-86
2021/12/30 12:44:53;;;;;;;;;;;;;;;7.49;67.25;100282.13;4270245;33;33330;-83
2021/12/30 12:58:26;;;;;;;;;;;;;;;7.12;68.63;100285.78;4318729;33;33421;-85
2021/12/30 13:01:45;;;;;;;;;;;;;;;7.46;68.09;100286.81;4387276;32;33201;-84
2021/12/30 13:04:55;;;;;;;;;;;;;;;7.19;69.07;100302.03;4395657;32;36285;-84
2021/12/30 13:19:17;;;;;;;;;;;;;;;7.58;68.26;100283.22;4299201;33;36172;-83
2021/12/30 13:26:22;;;;;;;;;;;;;;;7.15;69.95;100296.12;4321762;33;32707;-83
2021/12/30 13:29:13;;;;;;;;;;;;;;;6.84;71.25;100311.63;4301097;33;32180;-84
2021/12/30 13:45:03;;;;;;;;;;;;;;;7.26;70.28;100319.16;4337224;33;36233;-83
2021/12/30 13:48:22;;;;;;;;;;;;;;;7.46;69.62;100321.22;4293789;32;35052;-84
2021/12/30 13:51:26;;;;;;;;;;;;;;;;;;;;;
2021/12/30 13:54:10;;;;;;;;;;;;;;;7.85;68.46;100316.44;4346401;32;32970;-84
2021/12/30 14:00:21;;;;;;;;;;;;;;;8.03;67.19;100320.34;4338451;32;33368;-83
2021/12/30 14:03:34;;;;;;;;;;;;;;;8.01;67.46;100317.00;4352435;32;31288;-85
2021/12/30 14:06:31;;;;;;;;;;;;;;;7.93;67.90;100321.19;4376371;32;34712;-83
2021/12/30 14:09:41;;;;;;;;;;;;;;;7.64;68.78;100325.97;4326665;33;34116;-83
2021/12/30 14:12:36;;;;;;;;;;;;;;;7.70;68.76;100325.53;4318002;33;35644;-82
2021/12/30 14:15:40;;;;;;;;;;;;;;;7.80;68.62;100347.75;4325363;33;31953;-85
2021/12/30 14:18:38;;;;;;;;;;;;;;;8.02;68.07;100355.75;4330899;32;33426;-83
2021/12/30 14:24:59;;;;;;;;;;;;;;;8.18;67.51;100343.06;4367286;32;32811;-82
2021/12/30 14:28:45;;;;;;;;;;;;;;;8.22;67.44;100343.72;4407935;32;31874;-84
2021/12/30 14:32:41;;;;;;;;;;;;;;;8.19;67.47;100339.47;4323867;33;32763;-84
2021/12/30 14:35:16;;;;;;;;;;;;;;;8.26;67.31;100337.19;4344901;33;35254;-83
2021/12/30 14:58:15;;;;;;;;;;;;;;;8.46;66.47;100332.06;4322141;33;33509;-84
2021/12/30 15:04:19;;;;;;;;;;;;;;;8.50;66.21;100342.34;4288356;33;33927;-83
2021/12/30 15:07:31;;;;;;;;;;;;;;;8.40;66.47;100337.00;4291797;33;32563;-85
2021/12/30 15:10:32;;;;;;;;;;;;;;;8.38;66.48;100338.94;4289398;33;34613;-83
2021/12/30 15:39:45;;;;;;;;;;;;;;;8.42;65.95;100366.91;4317433;33;35787;-85
2021/12/30 15:45:56;;;;;;;;;;;;;;;;;;;;;
2021/12/30 15:52:54;;;;;;;;;;;;;;;8.28;66.32;100373.25;4336458;32;35079;-86
2021/12/30 15:56:01;;;;;;;;;;;;;;;8.31;66.14;100372.16;4332937;32;34411;-84
2021/12/30 15:58:45;;;;;;;;;;;;;;;8.28;66.24;100370.59;4335118;33;32692;-85
2021/12/30 16:01:40;;;;;;;;;;;;;;;8.19;66.34;100384.53;4332100;33;34967;-85
2021/12/30 16:08:29;;;;;;;;;;;;;;;8.27;66.16;100371.56;4396837;32;34359;-86
2021/12/30 16:14:47;;;;;;;;;;;;;;;8.05;66.75;100378.53;4303894;32;34483;-83
2021/12/30 16:24:33;;;;;;;;;;;;;;;8.09;66.58;100380.84;4337134;32;33125;-85
2021/12/30 16:39:50;;;;;;;;;;;;;;;8.33;66.02;100412.66;4318823;33;32927;-86
2021/12/30 16:43:32;;;;;;;;;;;;;;;;;;;;;
2021/12/30 16:56:22;;;;;;;;;;;;;;;8.19;66.61;100415.50;4305397;33;35121;-82
2021/12/30 16:58:50;;;;;;;;;;;;;;;8.48;65.68;100406.22;4300248;33;34320;-82
2021/12/30 17:01:17;;;;;;;;;;;;;;;8.66;64.90;100398.53;4295809;33;31968;-82
2021/12/30 17:03:45;;;;;;;;;;;;;;;8.44;65.66;100392.34;4287016;33;33498;-81
2021/12/30 17:06:13;;;;;;;;;;;;;;;8.27;66.29;100387.47;4289459;33;36395;-81
2021/12/30 17:08:41;;;;;;;;;;;;;;;8.08;66.87;100388.91;4306840;33;34908;-84
2021/12/30 17:11:08;;;;;;;;;;;;;;;8.09;66.97;100404.69;4299096;33;33510;-82
2021/12/30 17:13:36;;;;;;;;;;;;;;;8.17;66.94;100406.78;4303558;33;34300;-81
2021/12/30 17:16:03;;;;;;;;;;;;;;;8.31;66.70;100406.63;4343199;32;34645;-82
2021/12/30 17:18:31;;;;;;;;;;;;;;;8.48;65.89;100400.91;4329982;33;32834;-81
2021/12/30 17:20:59;;;;;;;;;;;;;;;8.71;65.01;100404.31;4313756;32;33082;-82
2021/12/30 17:23:26;;;;;;;;;;;;;;;8.25;66.75;100409.72;4344603;32;33968;-81
2021/12/30 17:32:14;;;;;;;;;;;;;;;7.77;68.37;100415.97;4299088;33;32926;-83
2021/12/30 17:39:10;;;;;;;;;;;;;;;8.06;67.77;100402.28;4269158;33;35850;-82
2021/12/30 17:41:33;;;;;;;;;;;;;;;8.03;67.85;100412.25;4267615;33;34328;-83
2021/12/30 17:45:06;;;;;;;;;;;;;;;7.93;67.95;100420.03;4235286;33;34075;-84
2021/12/30 17:54:12;;;;;;;;;;;;;;;8.28;66.98;100428.91;4238694;33;34236;-81
2021/12/30 18:00:34;;;;;;;;;;;;;;;8.40;66.69;100427.97;4257686;33;33902;-82
2021/12/30 18:03:33;;;;;;;;;;;;;;;8.44;66.52;100432.09;4255592;33;36553;-82
2021/12/30 18:12:47;;;;;;;;;;;;;;;8.58;66.31;100431.91;4314488;33;34056;-81
2021/12/30 18:15:47;;;;;;;;;;;;;;;8.60;66.31;100424.69;4298583;33;34591;-81
2021/12/30 18:18:42;;;;;;;;;;;;;;;8.74;65.72;100419.16;4296316;33;34216;-81
2021/12/30 18:22:31;;;;;;;;;;;;;;;8.61;66.07;100426.38;4326176;32;34033;-81
2021/12/30 18:25:21;;;;;;;;;;;;;;;;;;;;;
2021/12/30 18:35:18;;;;;;;;;;;;;;;;;;;;;
2021/12/30 18:41:38;;;;;;;;;;;;;;;;;;;;;
2021/12/30 18:45:05;;;;;;;;;;;;;;;8.52;66.58;100435.03;4317823;33;32815;-82
2021/12/30 18:47:58;;;;;;;;;;;;;;;;;;;;;
2021/12/30 18:54:29;;;;;;;;;;;;;;;7.93;68.34;100454.47;4313024;33;34952;-83
2021/12/30 18:57:31;;;;;;;;;;;;;;;7.93;68.22;100456.28;4276851;33;34948;-80
2021/12/30 19:07:00;;;;;;;;;;;;;;;8.07;68.06;100443.72;4293903;33;35918;-81
2021/12/30 19:10:11;;;;;;;;;;;;;;;;;;;;;
2021/12/30 19:13:11;;;;;;;;;;;;;;;8.22;67.60;100445.25;4301685;33;33180;-82
2021/12/30 19:16:21;;;;;;;;;;;;;;;;;;;;;
2021/12/30 19:19:12;;;;;;;;;;;;;;;8.45;66.79;100447.88;4328050;33;36096;-81
2021/12/30 19:29:35;;;;;;;;;;;;;;;;;;;;;
2021/12/30 19:39:35;;;;;;;;;;;;;;;8.53;66.63;100431.41;4298842;33;32940;-82
2021/12/30 19:48:42;;;;;;;;;;;;;;;8.70;66.32;100423.84;4316343;33;34405;-82
2021/12/30 19:54:45;;;;;;;;;;;;;;;8.74;66.25;100427.13;4308254;33;34348;-81
2021/12/30 19:58:00;;;;;;;;;;;;;;;;;;;;;
2021/12/30 20:11:29;;;;;;;;;;;;;;;8.45;67.54;100439.94;4313544;33;34671;-82
2021/12/30 20:14:25;;;;;;;;;;;;;;;;;;;;;
2021/12/30 20:17:58;;;;;;;;;;;;;;;8.57;67.21;100436.38;4264154;33;31548;-81
2021/12/30 20:20:58;;;;;;;;;;;;;;;;;;;;;
2021/12/30 20:33:39;;;;;;;;;;;;;;;;;;;;;
2021/12/30 20:37:16;;;;;;;;;;;;;;;8.93;66.14;100422.94;4268774;33;36396;-81
2021/12/30 20:43:22;;;;;;;;;;;;;;;8.96;66.12;100413.87;4283491;33;32048;-82
2021/12/30 20:46:58;;;;;;;;;;;;;;;8.99;66.11;100413.66;4319334;33;35518;-81
2021/12/30 20:49:18;;;;;;;;;;;;;;;9.01;66.22;100406.41;4328613;33;35994;-81